createdAt,value
2023-01-27T00:02:06.259Z,11.63
2023-01-27T00:07:07.986Z,12.77
2023-01-27T00:12:40.016Z,12.47
2023-01-27T00:17:42.249Z,12.23
2023-01-27T00:23:02.571Z,12.23
2023-01-27T00:28:05.873Z,12.20
2023-01-27T00:33:27.715Z,12.43
2023-01-27T00:38:31.566Z,13.30
2023-01-27T00:43:33.327Z,13.10
2023-01-27T00:48:35.537Z,14.10
2023-01-27T00:53:37.453Z,14.77
2023-01-27T00:58:39.248Z,14.90
2023-01-27T01:03:41.250Z,13.73
2023-01-27T01:08:43.460Z,13.77
2023-01-27T01:13:46.548Z,15.60
2023-01-27T01:18:48.641Z,14.27
2023-01-27T01:23:50.655Z,15.60
2023-01-27T01:28:52.440Z,15.73
2023-01-27T01:33:54.140Z,14.97
2023-01-27T01:38:57.229Z,15.60
2023-01-27T01:43:59.034Z,14.70
2023-01-27T01:49:03.258Z,13.97
2023-01-27T01:54:12.787Z,13.83
2023-01-27T01:59:25.725Z,14.33
2023-01-27T02:04:34.264Z,15.07
2023-01-27T02:09:38.391Z,15.47
2023-01-27T02:14:41.328Z,14.83
2023-01-27T02:19:55.699Z,16.20
2023-01-27T02:25:03.909Z,14.53
2023-01-27T02:30:06.147Z,16.97
2023-01-27T02:35:11.655Z,15.73
2023-01-27T02:40:14.866Z,15.50
2023-01-27T02:45:16.658Z,15.17
2023-01-27T02:50:18.532Z,15.67
2023-01-27T02:55:20.231Z,14.17
2023-01-27T03:00:22.205Z,15.17
2023-01-27T03:05:23.905Z,16.33
2023-01-27T03:10:25.674Z,16.53
2023-01-27T03:15:46.196Z,16.50
2023-01-27T03:20:49.929Z,17.23
2023-01-27T03:25:51.742Z,14.53
2023-01-27T03:31:03.945Z,16.50
2023-01-27T03:36:24.619Z,16.53
2023-01-27T03:41:45.074Z,16.20
2023-01-27T03:46:46.733Z,16.53
2023-01-27T03:51:48.393Z,15.33
2023-01-27T03:56:50.162Z,16.90
2023-01-27T04:01:51.843Z,17.00
2023-01-27T04:06:58.919Z,16.60
2023-01-27T04:12:02.682Z,16.47
2023-01-27T04:17:07.026Z,16.33
2023-01-27T04:22:11.332Z,15.23
2023-01-27T04:27:20.197Z,15.43
2023-01-27T04:32:21.997Z,14.90
2023-01-27T04:37:23.657Z,15.90
2023-01-27T04:42:25.388Z,14.53
2023-01-27T04:47:27.107Z,16.57
2023-01-27T04:52:28.772Z,15.77
2023-01-27T04:57:30.530Z,15.47
2023-01-27T05:02:32.608Z,16.07
2023-01-27T05:07:34.284Z,16.87
2023-01-27T05:12:35.970Z,16.37
2023-01-27T05:17:37.655Z,15.27
2023-01-27T05:22:39.507Z,16.20
2023-01-27T05:27:41.188Z,16.50
2023-01-27T05:32:42.860Z,17.10
2023-01-27T05:37:44.528Z,16.07
2023-01-27T05:42:46.192Z,16.67
2023-01-27T05:47:51.524Z,16.73
2023-01-27T05:52:53.210Z,16.27
2023-01-27T05:57:54.946Z,15.87
2023-01-27T06:02:56.707Z,17.20
2023-01-27T06:07:58.402Z,17.87
2023-01-27T06:13:00.834Z,17.17
2023-01-27T06:18:02.548Z,16.33
2023-01-27T06:23:04.552Z,17.37
2023-01-27T06:28:08.017Z,18.20
2023-01-27T06:33:10.190Z,16.03
2023-01-27T06:38:14.794Z,17.53
2023-01-27T06:43:16.527Z,18.30
2023-01-27T06:48:18.217Z,17.10
2023-01-27T06:53:19.897Z,18.07
2023-01-27T06:58:21.576Z,18.10
2023-01-27T07:03:23.797Z,18.73
2023-01-27T07:08:25.482Z,19.53
2023-01-27T07:13:27.229Z,19.20
2023-01-27T07:18:29.109Z,18.67
2023-01-27T07:23:30.837Z,20.10
2023-01-27T07:28:32.546Z,19.17
2023-01-27T07:33:34.287Z,19.63
2023-01-27T07:38:35.960Z,19.00
2023-01-27T07:43:37.644Z,19.77
2023-01-27T07:48:39.328Z,19.63
2023-01-27T07:53:41.940Z,19.83
2023-01-27T07:58:43.780Z,20.33
2023-01-27T08:03:45.448Z,20.83
2023-01-27T08:08:47.132Z,20.20
2023-01-27T08:13:48.799Z,20.20
2023-01-27T08:18:52.196Z,21.97
2023-01-27T08:23:54.068Z,19.57
2023-01-27T08:28:55.775Z,19.33
2023-01-27T08:33:57.598Z,19.30
2023-01-27T08:38:59.295Z,19.80
2023-01-27T08:44:00.993Z,19.07
2023-01-27T08:49:02.815Z,20.10
2023-01-27T08:54:04.600Z,22.13
2023-01-27T08:59:06.271Z,20.53
2023-01-27T09:04:07.943Z,20.93
2023-01-27T09:09:11.706Z,20.57
2023-01-27T09:14:13.957Z,20.30
2023-01-27T09:19:16.175Z,19.77
2023-01-27T09:24:19.382Z,19.93
2023-01-27T09:29:21.208Z,19.83
2023-01-27T09:34:22.866Z,20.00
2023-01-27T09:39:26.055Z,19.67
2023-01-27T09:44:46.555Z,19.87
2023-01-27T09:50:04.443Z,18.80
2023-01-27T09:55:16.654Z,18.77
2023-01-27T10:00:26.453Z,16.70
2023-01-27T10:05:49.004Z,16.40
2023-01-27T10:11:19.376Z,15.30
2023-01-27T10:16:57.127Z,12.77
2023-01-27T10:22:24.193Z,11.23
2023-01-27T10:27:28.586Z,10.33
2023-01-27T10:32:33.086Z,10.90
2023-01-27T10:37:45.088Z,11.33
2023-01-27T10:43:04.923Z,10.70
2023-01-27T10:48:17.715Z,9.50
2023-01-27T10:53:25.364Z,9.90
2023-01-27T10:58:55.347Z,9.80
2023-01-27T11:04:16.449Z,9.83
2023-01-27T11:09:30.654Z,9.97
2023-01-27T11:14:47.610Z,11.03
2023-01-27T11:20:40.341Z,9.67
2023-01-27T11:25:50.950Z,10.70
2023-01-27T11:31:15.479Z,10.00
2023-01-27T11:36:17.379Z,9.80
2023-01-27T11:41:19.248Z,10.03
2023-01-27T11:46:24.011Z,10.43
2023-01-27T11:51:39.178Z,10.20
2023-01-27T11:56:45.609Z,10.23
2023-01-27T12:01:59.079Z,11.43
2023-01-27T12:07:23.362Z,11.37
2023-01-27T12:12:27.229Z,10.83
2023-01-27T12:17:46.111Z,11.00
2023-01-27T12:22:52.602Z,10.83
2023-01-27T12:27:58.736Z,10.57
2023-01-27T12:33:10.987Z,10.67
2023-01-27T12:38:23.998Z,9.93
2023-01-27T12:43:25.757Z,9.73
2023-01-27T12:48:31.647Z,9.37
2023-01-27T12:53:33.639Z,9.20
2023-01-27T12:58:54.919Z,9.93
2023-01-27T13:04:03.648Z,9.43
2023-01-27T13:09:05.522Z,8.73
2023-01-27T13:14:13.607Z,8.73
2023-01-27T13:19:18.114Z,9.30
2023-01-27T13:24:41.364Z,8.60
2023-01-27T13:29:52.611Z,7.70
2023-01-27T13:35:15.733Z,7.97
2023-01-27T13:40:37.027Z,8.63
2023-01-27T13:45:55.923Z,7.63
2023-01-27T13:51:33.271Z,8.20
2023-01-27T13:56:42.563Z,8.40
2023-01-27T14:02:12.484Z,8.97
2023-01-27T14:07:26.093Z,8.47
2023-01-27T14:12:56.770Z,7.70
2023-01-27T14:18:11.956Z,7.40
2023-01-27T14:23:24.859Z,7.37
2023-01-27T14:28:48.504Z,6.83
2023-01-27T14:34:08.295Z,8.30
2023-01-27T14:39:35.765Z,7.70
2023-01-27T14:45:09.099Z,7.27
2023-01-27T14:50:16.551Z,8.87
2023-01-27T14:55:46.474Z,8.77
2023-01-27T15:01:11.181Z,9.10
2023-01-27T15:06:54.899Z,10.27
2023-01-27T15:12:05.331Z,9.23
2023-01-27T15:17:24.766Z,9.43
2023-01-27T15:22:38.630Z,10.17
2023-01-27T15:27:41.233Z,10.23
2023-01-27T15:32:42.931Z,9.93
2023-01-27T15:38:05.624Z,10.53
2023-01-27T15:43:15.606Z,11.13
2023-01-27T15:48:24.657Z,11.63
2023-01-27T15:53:38.127Z,12.13
2023-01-27T15:59:07.764Z,11.80
2023-01-27T16:04:14.562Z,12.40
2023-01-27T16:09:40.109Z,11.57
2023-01-27T16:14:43.751Z,13.53
2023-01-27T16:20:02.435Z,11.47
2023-01-27T16:25:28.732Z,11.87
2023-01-27T16:30:39.220Z,11.90
2023-01-27T16:35:48.269Z,12.47
2023-01-27T16:41:01.626Z,12.27
2023-01-27T16:46:03.638Z,12.87
2023-01-27T16:51:17.259Z,12.07
2023-01-27T16:56:26.615Z,11.60
2023-01-27T17:01:47.114Z,12.20
2023-01-27T17:06:51.643Z,13.67
2023-01-27T17:11:54.038Z,13.30
2023-01-27T17:17:16.789Z,12.07
2023-01-27T17:22:22.808Z,13.00
2023-01-27T17:27:33.889Z,11.53
2023-01-27T17:32:39.235Z,13.60
2023-01-27T17:37:44.631Z,12.87
2023-01-27T17:42:47.363Z,12.90
2023-01-27T17:47:50.280Z,13.77
2023-01-27T17:52:53.946Z,13.70
2023-01-27T17:58:07.049Z,12.83
2023-01-27T18:03:29.986Z,13.43
2023-01-27T18:08:36.085Z,13.70
2023-01-27T18:13:40.548Z,12.27
2023-01-27T18:18:43.177Z,13.97
2023-01-27T18:23:48.895Z,13.13
2023-01-27T18:28:55.121Z,12.90
2023-01-27T18:34:21.667Z,14.30
2023-01-27T18:39:38.218Z,13.73
2023-01-27T18:44:39.889Z,27.17
2023-01-27T18:49:41.597Z,37.77
2023-01-27T18:54:43.951Z,37.47
2023-01-27T18:59:45.596Z,21.93
2023-01-27T19:04:47.394Z,17.30
2023-01-27T19:09:49.155Z,16.57
2023-01-27T19:14:50.828Z,15.30
2023-01-27T19:19:52.606Z,16.43
2023-01-27T19:24:54.253Z,14.73
2023-01-27T19:29:55.924Z,15.60
2023-01-27T19:34:57.578Z,14.33
2023-01-27T19:39:59.276Z,15.43
2023-01-27T19:45:00.931Z,15.40
2023-01-27T19:50:05.022Z,16.23
2023-01-27T19:55:07.293Z,15.43
2023-01-27T20:00:30.476Z,14.90
2023-01-27T20:05:35.194Z,14.47
2023-01-27T20:10:37.157Z,15.73
2023-01-27T20:15:40.927Z,14.87
2023-01-27T20:20:44.237Z,15.00
2023-01-27T20:25:45.987Z,15.20
2023-01-27T20:30:47.680Z,15.77
2023-01-27T20:35:49.387Z,15.97
2023-01-27T20:40:51.044Z,15.73
2023-01-27T20:45:52.727Z,16.33
2023-01-27T20:50:59.586Z,17.43
2023-01-27T20:56:01.694Z,14.83
2023-01-27T21:01:08.457Z,15.30
2023-01-27T21:06:11.808Z,17.50
2023-01-27T21:11:15.967Z,16.53
2023-01-27T21:16:17.837Z,16.43
2023-01-27T21:21:26.914Z,16.67
2023-01-27T21:26:28.656Z,14.43
2023-01-27T21:31:31.276Z,14.53
2023-01-27T21:36:33.023Z,12.73
2023-01-27T21:41:52.712Z,11.83
2023-01-27T21:46:54.377Z,11.67
2023-01-27T21:51:56.245Z,11.53
2023-01-27T21:56:57.908Z,10.60
2023-01-27T22:01:59.723Z,9.50
2023-01-27T22:07:01.402Z,10.60
2023-01-27T22:12:04.500Z,11.20
2023-01-27T22:17:06.498Z,10.80
2023-01-27T22:22:11.821Z,10.90
2023-01-27T22:27:14.624Z,10.90
2023-01-27T22:32:16.358Z,11.27
2023-01-27T22:37:18.149Z,11.23
2023-01-27T22:42:19.831Z,11.13
2023-01-27T22:47:21.517Z,10.80
2023-01-27T22:52:23.259Z,10.93
2023-01-27T22:57:30.126Z,10.13
2023-01-27T23:02:32.189Z,10.57
2023-01-27T23:07:34.017Z,11.10
2023-01-27T23:12:35.677Z,11.40
2023-01-27T23:17:37.511Z,11.70
2023-01-27T23:22:39.554Z,12.03
2023-01-27T23:27:41.840Z,12.23
2023-01-27T23:32:43.666Z,10.77
2023-01-27T23:37:45.383Z,11.23
2023-01-27T23:42:47.091Z,11.03
2023-01-27T23:47:48.757Z,11.63
2023-01-27T23:52:51.484Z,11.73
2023-01-27T23:57:53.128Z,11.27
